Time;durP1;ratioP1;P1;durP2;ratioP2;P2;SDS_P1;SDS_P2;PMS_P1;PMS_P2;Temp;Humidity;BMP_temperature;BMP_pressure;BME280_temperature;BME280_humidity;BME280_pressure;Samples;Min_cycle;Max_cycle;Signal;HPM_P1;HPM_P2
2022/09/04 00:02:27;;;;;;;5.93;4.47;;;23.70;59.20;;;;;;5055725;28;20542;-83
2022/09/04 00:05:12;;;;;;;6.88;3.80;;;23.60;59.20;;;;;;5037962;28;20036;-85
2022/09/04 00:08:10;;;;;;;6.10;4.38;;;23.90;58.70;;;;;;5055497;28;20021;-78
2022/09/04 00:11:19;;;;;;;5.30;4.18;;;24.00;58.70;;;;;;5037649;28;20021;-83
2022/09/04 00:13:56;;;;;;;7.05;3.92;;;24.20;57.90;;;;;;5047116;28;20111;-83
2022/09/04 00:16:36;;;;;;;4.93;3.92;;;24.20;58.00;;;;;;5037763;28;20025;-81
2022/09/04 00:19:15;;;;;;;5.97;4.00;;;24.30;57.70;;;;;;5055513;28;20017;-80
2022/09/04 00:21:56;;;;;;;6.45;4.88;;;24.30;57.70;;;;;;5037314;28;20282;-81
2022/09/04 00:24:34;;;;;;;5.82;3.90;;;24.20;57.60;;;;;;5037375;28;20033;-81
2022/09/04 00:27:22;;;;;;;6.63;4.32;;;24.00;57.90;;;;;;5037065;28;20021;-83
2022/09/04 00:30:13;;;;;;;6.00;4.07;;;23.80;58.40;;;;;;5050213;28;20033;-82
2022/09/04 00:32:58;;;;;;;5.97;4.63;;;24.00;58.20;;;;;;5035197;28;20087;-82
2022/09/04 00:35:31;;;;;;;19.02;17.55;;;24.10;57.80;;;;;;5054349;28;20029;-84
2022/09/04 00:38:14;;;;;;;8.43;5.00;;;24.20;57.60;;;;;;5054923;28;20476;-80
2022/09/04 00:40:43;;;;;;;7.38;4.68;;;24.10;57.60;;;;;;5037172;28;20021;-84
2022/09/04 00:43:24;;;;;;;6.38;4.10;;;24.10;57.80;;;;;;5054507;28;20041;-79
2022/09/04 00:46:11;;;;;;;6.70;4.88;;;24.00;57.80;;;;;;5036264;28;20059;-78
2022/09/04 00:49:07;;;;;;;7.68;4.50;;;23.90;58.10;;;;;;5036933;28;20029;-80
2022/09/04 00:51:55;;;;;;;5.97;4.28;;;23.80;58.50;;;;;;5053648;28;20049;-84
2022/09/04 00:54:51;;;;;;;6.93;4.40;;;23.90;58.30;;;;;;5036872;28;20116;-85
2022/09/04 00:57:47;;;;;;;5.43;4.60;;;23.90;58.30;;;;;;5054601;28;20087;-83
2022/09/04 01:00:20;;;;;;;6.47;4.93;;;23.90;58.50;;;;;;5054975;28;20029;-84
2022/09/04 01:02:55;;;;;;;6.25;4.65;;;23.80;59.10;;;;;;5036595;28;20124;-84
2022/09/04 01:05:59;;;;;;;5.93;4.70;;;23.70;58.90;;;;;;5036691;28;20032;-82
2022/09/04 01:08:39;;;;;;;6.78;5.25;;;23.70;59.20;;;;;;5054465;28;20143;-84
2022/09/04 01:11:11;;;;;;;5.38;4.00;;;23.80;59.20;;;;;;5036604;28;20353;-84
2022/09/04 01:13:59;;;;;;;5.88;4.38;;;23.80;59.20;;;;;;5036530;28;20032;-80
2022/09/04 01:16:40;;;;;;;5.80;3.95;;;23.90;58.80;;;;;;5053926;28;20070;-84
2022/09/04 01:19:28;;;;;;;6.22;4.60;;;23.90;59.20;;;;;;5036857;28;20031;-83
2022/09/04 01:22:16;;;;;;;7.45;5.10;;;23.90;59.40;;;;;;5035949;28;20516;-82
2022/09/04 01:24:41;;;;;;;7.43;4.85;;;23.90;59.20;;;;;;5053847;28;20036;-84
2022/09/04 01:28:08;;;;;;;5.82;4.30;;;24.00;59.10;;;;;;5035816;28;20051;-85
2022/09/04 01:31:09;;;;;;;8.13;4.55;;;24.00;59.10;;;;;;4984159;28;20042;-80
2022/09/04 01:33:45;;;;;;;8.40;5.65;;;24.10;59.40;;;;;;4931103;29;20595;-79
2022/09/04 01:36:50;;;;;;;7.28;5.50;;;24.20;58.90;;;;;;4917000;29;20024;-79
2022/09/04 01:39:19;;;;;;;7.88;4.90;;;24.10;59.40;;;;;;4934360;29;20091;-82
2022/09/04 01:41:53;;;;;;;7.43;5.78;;;24.10;59.50;;;;;;4934825;29;20070;-79
2022/09/04 01:44:18;;;;;;;6.22;4.68;;;24.20;59.30;;;;;;4918527;29;20031;-76
2022/09/04 01:47:01;;;;;;;5.90;4.30;;;24.20;59.40;;;;;;4934834;29;20035;-80
2022/09/04 01:49:41;;;;;;;6.82;4.95;;;24.30;59.20;;;;;;4934195;29;20110;-81
2022/09/04 01:52:20;;;;;;;6.20;4.88;;;24.40;59.10;;;;;;4934649;29;20047;-80
2022/09/04 01:54:55;;;;;;;6.15;4.70;;;24.40;59.20;;;;;;4933725;29;20047;-82
2022/09/04 01:57:46;;;;;;;6.60;4.07;;;24.40;59.20;;;;;;4933577;29;20040;-78
2022/09/04 02:00:21;;;;;;;5.50;4.38;;;24.40;59.30;;;;;;4940446;28;20034;-81
2022/09/04 02:02:53;;;;;;;5.75;4.32;;;24.50;59.00;;;;;;4955044;28;20066;-81
2022/09/04 02:05:39;;;;;;;5.70;4.70;;;24.60;59.00;;;;;;4955633;28;20030;-79
2022/09/04 02:08:46;;;;;;;6.43;4.55;;;24.50;59.00;;;;;;4954879;28;20552;-78
2022/09/04 02:11:15;;;;;;;5.13;3.97;;;24.50;58.90;;;;;;5038750;28;20041;-77
2022/09/04 02:14:10;;;;;;;5.40;4.13;;;24.50;58.60;;;;;;5033512;28;20029;-77
2022/09/04 02:16:55;;;;;;;6.85;4.15;;;24.60;58.30;;;;;;5052137;28;20025;-79
2022/09/04 02:19:53;;;;;;;6.05;3.92;;;24.70;58.20;;;;;;5033895;28;20028;-76
2022/09/04 02:22:18;;;;;;;5.90;4.53;;;24.70;58.20;;;;;;5053029;28;20095;-79
2022/09/04 02:25:05;;;;;;;6.63;4.28;;;24.60;58.50;;;;;;5035678;28;20041;-81
2022/09/04 02:27:48;;;;;;;5.50;4.35;;;24.60;58.60;;;;;;5053392;28;20503;-83
2022/09/04 02:30:17;;;;;;;6.38;4.82;;;24.60;58.60;;;;;;5034980;28;20068;-79
2022/09/04 02:33:14;;;;;;;6.80;4.53;;;24.60;58.70;;;;;;5035701;28;20460;-81
2022/09/04 02:35:54;;;;;;;6.93;3.88;;;24.50;58.40;;;;;;5047161;28;20033;-82
2022/09/04 02:38:28;;;;;;;6.22;4.70;;;24.40;58.40;;;;;;5035140;28;20079;-82
2022/09/04 02:41:05;;;;;;;6.20;4.03;;;24.50;58.30;;;;;;5035195;28;20032;-79
2022/09/04 02:43:40;;;;;;;7.18;4.18;;;24.60;58.10;;;;;;5035354;28;20391;-81
2022/09/04 02:46:16;;;;;;;6.50;4.20;;;24.70;58.10;;;;;;5052951;28;20029;-82
2022/09/04 02:48:55;;;;;;;6.97;4.53;;;24.70;57.90;;;;;;5052954;28;20029;-80
2022/09/04 02:51:52;;;;;;;5.53;4.10;;;24.70;58.00;;;;;;5035087;28;20049;-81
2022/09/04 02:54:58;;;;;;;7.70;4.20;;;24.60;58.20;;;;;;5053193;28;20057;-79
2022/09/04 02:57:42;;;;;;;5.53;4.30;;;24.60;57.90;;;;;;5034911;28;20070;-79
2022/09/04 03:00:16;;;;;;;5.95;3.90;;;24.60;58.10;;;;;;5052502;28;20037;-80
2022/09/04 03:03:09;;;;;;;5.03;3.80;;;24.60;57.90;;;;;;5034887;28;20033;-82
2022/09/04 03:05:43;;;;;;;5.38;3.92;;;24.70;57.80;;;;;;5052924;28;20025;-82
2022/09/04 03:08:17;;;;;;;4.55;3.28;;;24.70;57.30;;;;;;5052762;28;20017;-79
2022/09/04 03:10:55;;;;;;;6.28;3.42;;;24.70;57.00;;;;;;5034655;28;20029;-83
2022/09/04 03:13:48;;;;;;;5.65;3.60;;;24.30;57.30;;;;;;5035136;28;20022;-86
2022/09/04 03:16:45;;;;;;;6.13;3.28;;;23.60;58.40;;;;;;5056649;28;20104;-83
2022/09/04 03:19:41;;;;;;;4.90;3.50;;;22.90;59.90;;;;;;5056403;28;20060;-83
2022/09/04 03:22:10;;;;;;;6.15;3.95;;;23.10;60.40;;;;;;5038369;28;20033;-83
2022/09/04 03:25:06;;;;;;;6.25;4.07;;;23.60;59.60;;;;;;5038495;28;20048;-84
2022/09/04 03:27:34;;;;;;;5.57;3.92;;;24.10;58.90;;;;;;5056270;28;20110;-83
2022/09/04 03:30:02;;;;;;;7.22;4.35;;;24.40;58.20;;;;;;5039183;28;20049;-82
2022/09/04 03:32:45;;;;;;;9.63;4.00;;;24.50;58.20;;;;;;5056032;28;20357;-84
2022/09/04 03:35:29;;;;;;;6.35;4.18;;;24.60;58.00;;;;;;5056280;28;20024;-80
2022/09/04 03:38:19;;;;;;;5.50;4.10;;;24.60;58.20;;;;;;5055816;28;20082;-81
2022/09/04 03:41:04;;;;;;;6.07;4.30;;;24.60;58.20;;;;;;5038323;28;20017;-80
2022/09/04 03:43:30;;;;;;;7.60;4.10;;;24.60;58.30;;;;;;5038289;28;20459;-83
2022/09/04 03:46:02;;;;;;;5.43;3.90;;;24.50;58.30;;;;;;5055741;28;20051;-79
2022/09/04 03:48:46;;;;;;;5.85;4.60;;;24.50;57.90;;;;;;5055920;28;20074;-80
2022/09/04 03:51:24;;;;;;;5.82;4.10;;;24.50;58.20;;;;;;5055185;28;20064;-81
2022/09/04 03:54:08;;;;;;;5.05;3.85;;;24.50;58.10;;;;;;5037306;28;20025;-82
2022/09/04 03:56:58;;;;;;;5.50;4.35;;;24.40;58.20;;;;;;5037594;28;20494;-81
2022/09/04 03:59:48;;;;;;;6.32;4.30;;;24.20;58.70;;;;;;5055621;28;20025;-82
2022/09/04 04:02:43;;;;;;;5.25;3.65;;;24.30;58.50;;;;;;5037640;28;20037;-78
2022/09/04 04:05:35;;;;;;;5.22;3.60;;;24.30;58.30;;;;;;5037797;28;20021;-80
2022/09/04 04:08:01;;;;;;;5.85;3.95;;;24.10;58.00;;;;;;5037370;28;20025;-82
2022/09/04 04:10:59;;;;;;;5.05;3.97;;;23.90;58.60;;;;;;5037679;28;20171;-81
2022/09/04 04:14:06;;;;;;;6.63;3.80;;;24.10;58.40;;;;;;5037388;28;20025;-78
2022/09/04 04:16:55;;;;;;;4.75;3.63;;;24.20;58.20;;;;;;5055086;28;20029;-86
2022/09/04 04:19:27;;;;;;;4.90;3.55;;;24.10;58.00;;;;;;5037419;28;20067;-80
2022/09/04 04:22:25;;;;;;;5.18;3.67;;;24.10;58.20;;;;;;5054678;28;20025;-81
2022/09/04 04:25:15;;;;;;;7.40;3.70;;;24.00;58.40;;;;;;5037266;28;20036;-81
2022/09/04 04:28:01;;;;;;;5.53;3.63;;;24.10;58.40;;;;;;5054776;28;20139;-78
2022/09/04 04:30:36;;;;;;;4.55;3.38;;;24.30;58.20;;;;;;5054809;28;20472;-81
2022/09/04 04:33:31;;;;;;;4.95;3.25;;;24.10;58.50;;;;;;5037109;28;20067;-78
2022/09/04 04:36:32;;;;;;;4.68;3.40;;;24.00;58.60;;;;;;5037148;28;20387;-81
2022/09/04 04:39:17;;;;;;;4.80;3.47;;;24.10;58.60;;;;;;4992693;28;20560;-83
2022/09/04 04:42:03;;;;;;;4.32;3.35;;;24.30;58.10;;;;;;4993277;28;20039;-82
2022/09/04 04:48:28;;;;;;;4.80;3.10;;;24.30;57.80;;;;;;4993546;28;20041;-82
2022/09/04 04:51:17;;;;;;;4.50;3.22;;;24.40;57.70;;;;;;4973859;28;20153;-80
2022/09/04 04:54:17;;;;;;;4.70;3.30;;;24.50;57.90;;;;;;4993150;28;20035;-82
2022/09/04 04:56:54;;;;;;;6.40;3.60;;;24.60;57.50;;;;;;4935026;29;20111;-84
2022/09/04 04:59:29;;;;;;;6.32;3.45;;;24.70;57.30;;;;;;4919460;29;20027;-78
2022/09/04 05:02:36;;;;;;;5.63;3.45;;;24.90;57.20;;;;;;4935148;29;20062;-81
2022/09/04 05:05:40;;;;;;;4.32;3.20;;;25.00;57.00;;;;;;4934987;29;20039;-80
2022/09/04 05:08:19;;;;;;;5.28;3.00;;;24.90;57.30;;;;;;4934970;29;20205;-82
2022/09/04 05:10:53;;;;;;;6.75;3.08;;;24.90;57.10;;;;;;4934845;29;20157;-80
2022/09/04 05:13:24;;;;;;;4.22;3.10;;;24.80;57.30;;;;;;4935370;29;20110;-83
2022/09/04 05:16:17;;;;;;;4.30;3.00;;;24.50;57.70;;;;;;4973386;28;20518;-84
2022/09/04 05:18:51;;;;;;;5.43;3.08;;;24.60;57.90;;;;;;4957703;28;20467;-84
2022/09/04 05:21:26;;;;;;;10.20;3.25;;;24.80;57.30;;;;;;4973357;28;20561;-82
2022/09/04 05:24:08;;;;;;;4.43;2.90;;;25.00;56.70;;;;;;4973555;28;20629;-83
2022/09/04 05:26:58;;;;;;;5.32;2.92;;;25.00;56.80;;;;;;4956608;28;20042;-83
2022/09/04 05:29:35;;;;;;;5.28;3.55;;;24.80;57.30;;;;;;4973358;28;20049;-82
2022/09/04 05:32:33;;;;;;;5.60;3.10;;;24.80;57.50;;;;;;4956828;28;20069;-89
2022/09/04 05:35:08;;;;;;;5.22;2.95;;;24.90;57.50;;;;;;4899562;29;20051;-80
2022/09/04 05:37:57;;;;;;;4.10;2.75;;;25.00;57.10;;;;;;4915498;29;20385;-82
2022/09/04 05:41:04;;;;;;;5.13;3.25;;;25.00;57.10;;;;;;4915340;29;20468;-81
2022/09/04 05:43:36;;;;;;;5.93;3.50;;;25.10;57.20;;;;;;4900156;29;20036;-80
2022/09/04 05:46:23;;;;;;;5.03;3.30;;;25.10;57.00;;;;;;4899822;29;20136;-83
2022/09/04 05:48:59;;;;;;;4.88;3.35;;;25.30;57.00;;;;;;4899586;29;20555;-83
2022/09/04 05:51:34;;;;;;;6.03;3.22;;;25.30;57.10;;;;;;4899623;29;20052;-80
2022/09/04 05:54:20;;;;;;;7.38;3.30;;;25.40;57.10;;;;;;4899548;29;20028;-82
2022/09/04 05:56:53;;;;;;;5.18;3.30;;;25.50;57.20;;;;;;4899342;29;20670;-79
2022/09/04 05:59:49;;;;;;;4.72;3.00;;;25.50;57.10;;;;;;4907873;29;20424;-83
2022/09/04 06:02:31;;;;;;;5.45;2.90;;;25.60;56.90;;;;;;4899758;29;20570;-81
2022/09/04 06:05:47;;;;;;;4.55;3.05;;;25.60;56.90;;;;;;4915037;29;20484;-85
2022/09/04 06:08:46;;;;;;;5.30;2.72;;;25.60;56.90;;;;;;4859017;29;20094;-78
2022/09/04 06:11:48;;;;;;;7.03;2.97;;;25.30;57.50;;;;;;4881219;28;20607;-79
2022/09/04 06:14:48;;;;;;;4.40;2.70;;;25.30;58.30;;;;;;4934448;29;20036;-81
2022/09/04 06:17:28;;;;;;;5.22;2.70;;;25.60;56.80;;;;;;4933743;29;20108;-81
2022/09/04 06:20:03;;;;;;;3.30;2.40;;;25.60;56.50;;;;;;4932773;29;20242;-79
2022/09/04 06:22:59;;;;;;;3.63;2.70;;;25.80;56.40;;;;;;4575109;29;10001638;-86
2022/09/04 06:25:52;;;;;;;4.03;2.50;;;25.70;55.60;;;;;;4913602;29;20032;-82
2022/09/04 06:28:56;;;;;;;4.78;2.33;;;25.70;56.20;;;;;;4913558;29;20028;-85
2022/09/04 06:31:22;;;;;;;3.38;2.20;;;25.60;55.00;;;;;;4894726;29;20036;-80
2022/09/04 06:34:15;;;;;;;3.13;2.30;;;25.00;55.00;;;;;;4894717;29;20071;-82
2022/09/04 06:37:00;;;;;;;3.40;2.40;;;24.40;56.70;;;;;;4878859;29;20036;-84
2022/09/04 06:39:32;;;;;;;3.70;2.28;;;24.00;57.40;;;;;;4879349;29;20028;-87
2022/09/04 06:42:29;;;;;;;4.22;2.25;;;23.90;57.30;;;;;;4894830;29;20615;-82
2022/09/04 06:44:54;;;;;;;3.45;2.40;;;24.10;57.10;;;;;;4896739;29;20048;-77
2022/09/04 06:47:34;;;;;;;5.40;2.47;;;23.90;57.00;;;;;;4914198;29;20114;-85
2022/09/04 06:50:03;;;;;;;4.07;2.35;;;23.70;56.90;;;;;;4921037;28;20520;-86
2022/09/04 06:52:37;;;;;;;3.22;2.30;;;23.60;57.80;;;;;;4978727;28;20022;-92
2022/09/04 06:55:27;;;;;;;4.18;2.20;;;23.10;58.40;;;;;;4978389;28;20034;-84
2022/09/04 06:58:20;;;;;;;4.88;2.70;;;23.00;59.10;;;;;;4977625;28;20084;-83
2022/09/04 07:01:01;;;;;;;6.28;2.38;;;23.30;58.90;;;;;;4994450;28;20046;-84
2022/09/04 07:03:51;;;;;;;3.67;2.40;;;23.30;58.80;;;;;;4977387;28;20034;-92
2022/09/04 07:06:58;;;;;;;3.58;2.60;;;23.50;58.00;;;;;;4978291;28;20046;-85
2022/09/04 07:09:47;;;;;;;3.83;2.72;;;23.60;58.10;;;;;;5026487;28;20709;-85
2022/09/04 07:12:25;;;;;;;3.60;2.40;;;23.50;59.30;;;;;;5034825;28;20131;-77
2022/09/04 07:15:28;;;;;;;4.50;2.42;;;23.80;58.60;;;;;;5036332;28;20033;-92
2022/09/04 07:18:29;;;;;;;3.55;2.67;;;23.60;59.10;;;;;;5018098;28;20078;-82
2022/09/04 07:21:01;;;;;;;3.95;2.70;;;23.40;60.20;;;;;;5017787;28;20022;-84
2022/09/04 07:23:36;;;;;;;4.03;2.80;;;23.40;61.20;;;;;;5018928;28;20504;-83
2022/09/04 07:26:19;;;;;;;3.80;2.70;;;23.30;61.20;;;;;;5018399;28;20049;-82
2022/09/04 07:29:10;;;;;;;3.80;2.85;;;23.30;61.80;;;;;;5018225;28;20052;-83
2022/09/04 07:31:42;;;;;;;;;;;23.30;61.70;;;;;;5018719;28;20384;-82
2022/09/04 07:34:17;;;;;;;5.50;2.80;;;23.50;62.40;;;;;;5017609;28;20374;-80
2022/09/04 07:37:00;;;;;;;4.68;3.03;;;24.10;61.80;;;;;;5033653;28;20423;-79
2022/09/04 07:39:47;;;;;;;5.03;3.00;;;24.60;60.70;;;;;;5014742;28;20476;-77
2022/09/04 07:42:34;;;;;;;7.05;3.03;;;24.70;60.50;;;;;;5014045;28;20064;-76
2022/09/04 07:45:31;;;;;;;7.05;3.58;;;24.90;60.50;;;;;;5014650;28;20046;-79
2022/09/04 07:48:11;;;;;;;5.00;3.90;;;25.10;60.30;;;;;;5015928;28;20391;-78
2022/09/04 07:51:08;;;;;;;4.80;3.72;;;25.10;61.10;;;;;;5015369;28;20094;-80
2022/09/04 07:54:17;;;;;;;6.28;4.13;;;25.30;60.30;;;;;;5015527;28;20037;-79
2022/09/04 07:57:07;;;;;;;5.05;4.07;;;25.30;60.20;;;;;;4932305;29;20438;-78
2022/09/04 07:59:44;;;;;;;5.10;3.78;;;25.30;61.00;;;;;;4946145;28;20125;-78
2022/09/04 08:02:18;;;;;;;7.22;4.90;;;25.10;61.30;;;;;;4950772;29;20058;-76
2022/09/04 08:05:02;;;;;;;5.93;4.10;;;25.10;61.10;;;;;;4935439;29;20023;-78
2022/09/04 08:07:37;;;;;;;5.32;4.30;;;25.10;61.40;;;;;;4935301;29;20071;-78
2022/09/04 08:10:31;;;;;;;6.63;4.20;;;25.10;61.20;;;;;;4935333;29;20027;-78
2022/09/04 08:13:26;;;;;;;5.75;4.22;;;25.20;61.40;;;;;;4935408;29;20027;-79
2022/09/04 08:16:10;;;;;;;5.18;4.45;;;25.30;61.60;;;;;;4951584;29;20057;-79
2022/09/04 08:19:00;;;;;;;5.68;4.45;;;25.40;61.50;;;;;;4951554;29;20093;-79
2022/09/04 08:21:32;;;;;;;5.23;4.50;;;25.40;61.70;;;;;;4513538;29;10000007;-78
2022/09/04 08:24:01;;;;;;;5.60;4.32;;;25.50;61.40;;;;;;4869060;29;20077;-77
2022/09/04 08:26:35;;;;;;;7.20;4.60;;;25.50;61.70;;;;;;4864047;29;20040;-79
2022/09/04 08:29:31;;;;;;;6.57;4.90;;;25.50;61.70;;;;;;4968133;28;20026;-78
2022/09/04 08:32:15;;;;;;;6.03;4.55;;;25.50;61.70;;;;;;4969036;28;20049;-78
2022/09/04 08:34:51;;;;;;;7.13;4.07;;;25.60;61.50;;;;;;4967641;28;20031;-77
2022/09/04 08:37:34;;;;;;;5.40;4.43;;;25.60;61.00;;;;;;4981502;28;20363;-79
2022/09/04 08:40:34;;;;;;;5.85;4.32;;;25.60;61.00;;;;;;4954136;28;20879;-79
2022/09/04 08:43:15;;;;;;;5.53;4.15;;;25.70;60.90;;;;;;4958713;28;20423;-76
2022/09/04 08:46:19;;;;;;;4.82;3.60;;;25.80;61.00;;;;;;4944340;28;20063;-76
2022/09/04 08:49:09;;;;;;;5.18;4.35;;;25.90;60.20;;;;;;4907306;29;20123;-78
2022/09/04 08:52:11;;;;;;;6.75;4.30;;;25.90;61.10;;;;;;4914212;29;20040;-79
2022/09/04 08:55:24;;;;;;;4.68;3.63;;;25.60;61.30;;;;;;4913883;29;20044;-77
2022/09/04 08:58:29;;;;;;;6.88;3.97;;;25.00;63.10;;;;;;4906050;29;20118;-79
2022/09/04 09:00:55;;;;;;;57.88;52.00;;;24.80;60.80;;;;;;4952146;29;20035;-78
2022/09/04 09:03:58;;;;;;;5.05;3.80;;;24.50;62.70;;;;;;4953094;29;20058;-76
2022/09/04 09:06:44;;;;;;;4.95;3.60;;;24.80;63.00;;;;;;4952905;29;20035;-78
2022/09/04 09:09:42;;;;;;;5.28;3.70;;;25.40;61.20;;;;;;4948281;29;20040;-76
2022/09/04 09:12:26;;;;;;;8.23;4.13;;;25.90;60.30;;;;;;4594185;29;10000563;-82
2022/09/04 09:15:08;;;;;;;5.93;3.95;;;26.20;60.00;;;;;;4951424;29;20273;-80
2022/09/04 09:17:43;;;;;;;7.05;3.80;;;26.40;59.50;;;;;;4950354;29;20387;-79
2022/09/04 09:20:18;;;;;;;6.93;3.90;;;26.70;58.90;;;;;;4948159;29;20605;-80
2022/09/04 09:23:21;;;;;;;9.65;4.18;;;26.80;57.70;;;;;;4939903;29;20118;-80
2022/09/04 09:26:17;;;;;;;7.18;3.85;;;26.90;57.10;;;;;;4972287;28;20072;-80
2022/09/04 09:29:25;;;;;;;6.20;4.43;;;27.00;57.40;;;;;;5015849;28;20029;-82
2022/09/04 09:32:00;;;;;;;6.60;3.42;;;26.80;57.60;;;;;;5018765;28;20026;-80
2022/09/04 09:34:56;;;;;;;8.45;4.50;;;26.60;58.00;;;;;;5021102;28;20068;-82
2022/09/04 09:37:25;;;;;;;5.68;4.25;;;26.70;58.40;;;;;;5018429;28;20047;-79
2022/09/04 09:40:12;;;;;;;9.00;4.30;;;26.80;58.10;;;;;;5025125;28;20444;-80
2022/09/04 09:43:13;;;;;;;4.93;3.60;;;26.90;57.30;;;;;;5028380;28;20048;-82
2022/09/04 09:46:37;;;;;;;9.48;3.85;;;27.00;57.50;;;;;;5027994;28;20120;-81
2022/09/04 09:49:40;;;;;;;5.32;3.55;;;26.60;58.20;;;;;;4964136;28;20069;-81
2022/09/04 09:52:56;;;;;;;5.13;3.13;;;26.60;58.40;;;;;;4940047;29;20070;-81
2022/09/04 09:55:54;;;;;;;7.47;3.53;;;26.70;58.50;;;;;;4936705;29;20476;-83
2022/09/04 09:58:38;;;;;;;8.13;3.53;;;26.90;58.50;;;;;;4962559;28;20038;-80
2022/09/04 10:01:23;;;;;;;5.25;3.42;;;27.00;57.50;;;;;;4969338;28;20047;-82
2022/09/04 10:04:40;;;;;;;5.07;3.10;;;27.20;58.00;;;;;;4936884;29;20043;-82
2022/09/04 10:07:36;;;;;;;6.20;3.22;;;27.20;57.90;;;;;;4954704;28;20530;-84
2022/09/04 10:10:17;;;;;;;7.68;4.00;;;26.60;57.50;;;;;;4955141;28;20066;-81
2022/09/04 10:12:58;;;;;;;5.18;3.40;;;26.50;58.90;;;;;;4942004;28;20046;-83
2022/09/04 10:16:00;;;;;;;8.57;3.65;;;26.60;58.70;;;;;;4952940;29;20050;-82
2022/09/04 10:18:45;;;;;;;5.28;3.72;;;25.80;60.80;;;;;;4958081;28;20131;-81
2022/09/04 10:21:49;;;;;;;5.75;3.25;;;25.40;61.10;;;;;;5014665;28;20037;-84
2022/09/04 10:24:43;;;;;;;8.65;3.92;;;25.50;60.30;;;;;;5037768;28;20159;-78
2022/09/04 10:27:28;;;;;;;5.57;3.38;;;25.70;60.90;;;;;;5040264;28;20029;-83
2022/09/04 10:30:09;;;;;;;4.97;3.38;;;25.90;61.30;;;;;;5020305;28;20120;-80
2022/09/04 10:32:37;;;;;;;5.25;3.38;;;25.90;58.80;;;;;;5023288;28;20032;-79
2022/09/04 10:35:29;;;;;;;6.50;3.80;;;25.60;60.50;;;;;;5027624;28;20021;-80
2022/09/04 10:38:26;;;;;;;5.93;3.47;;;25.70;59.90;;;;;;5026611;28;20103;-80
2022/09/04 10:41:23;;;;;;;5.43;3.63;;;25.40;60.30;;;;;;5034283;28;20027;-82
2022/09/04 10:44:16;;;;;;;4.10;3.30;;;25.50;60.80;;;;;;5031474;28;20045;-83
2022/09/04 10:46:41;;;;;;;5.43;3.42;;;25.40;61.30;;;;;;5025860;28;20057;-86
2022/09/04 10:49:28;;;;;;;6.18;3.53;;;25.50;60.60;;;;;;5026098;28;20150;-78
2022/09/04 10:51:58;;;;;;;5.47;3.63;;;25.40;61.00;;;;;;5031230;28;20072;-82
2022/09/04 10:54:42;;;;;;;;;;;25.20;62.20;;;;;;5031887;28;20056;-79
2022/09/04 10:57:45;;;;;;;5.22;3.58;;;25.30;62.10;;;;;;5047509;28;19928;-80
2022/09/04 11:00:13;;;;;;;5.70;3.80;;;25.50;61.40;;;;;;5047387;28;20381;-89
2022/09/04 11:03:01;;;;;;;5.38;3.63;;;25.60;61.50;;;;;;5057349;28;20033;-80
2022/09/04 11:05:45;;;;;;;5.70;3.95;;;25.70;61.40;;;;;;5035244;28;20033;-80
2022/09/04 11:08:15;;;;;;;5.88;3.90;;;25.70;61.50;;;;;;5033400;28;20036;-81
2022/09/04 11:11:05;;;;;;;5.00;4.10;;;25.60;62.00;;;;;;5034199;28;20093;-84
2022/09/04 11:14:05;;;;;;;6.32;3.97;;;25.60;61.70;;;;;;5039202;28;20247;-86
2022/09/04 11:17:14;;;;;;;7.53;4.17;;;25.70;62.00;;;;;;5027823;28;20083;-80
2022/09/04 11:20:27;;;;;;;5.70;4.60;;;26.20;61.80;;;;;;4957394;28;20503;-83
2022/09/04 11:23:01;;;;;;;5.63;4.10;;;26.70;60.30;;;;;;4957124;28;20118;-83
2022/09/04 11:26:04;;;;;;;6.60;4.50;;;26.80;60.50;;;;;;4957404;28;20066;-79
2022/09/04 11:28:51;;;;;;;5.32;4.50;;;27.00;60.80;;;;;;4957118;28;20486;-80
2022/09/04 11:31:47;;;;;;;6.00;4.07;;;27.50;59.90;;;;;;4942622;29;20397;-82
2022/09/04 11:34:52;;;;;;;4.57;3.58;;;27.90;58.60;;;;;;4953397;28;20074;-80
2022/09/04 11:37:38;;;;;;;4.88;3.90;;;27.50;58.40;;;;;;4972944;28;20043;-80
2022/09/04 11:40:15;;;;;;;6.25;4.13;;;26.60;59.30;;;;;;4940373;29;20050;-79
2022/09/04 11:43:29;;;;;;;6.60;4.10;;;26.10;60.90;;;;;;4952964;28;20085;-83
2022/09/04 11:46:28;;;;;;;7.32;4.45;;;25.90;61.90;;;;;;4898698;29;20488;-78
2022/09/04 11:49:12;;;;;;;6.97;4.70;;;25.80;61.90;;;;;;4879899;29;20049;-79
2022/09/04 11:52:02;;;;;;;5.93;4.57;;;26.30;61.90;;;;;;4879455;29;20564;-84
2022/09/04 11:54:28;;;;;;;;;;;26.80;61.50;;;;;;4861218;29;20097;-81
2022/09/04 11:57:12;;;;;;;8.50;5.13;;;26.90;60.50;;;;;;4923343;29;19912;-80
2022/09/04 11:59:49;;;;;;;6.75;4.82;;;27.10;60.40;;;;;;4954637;29;20451;-84
2022/09/04 12:02:35;;;;;;;5.88;4.07;;;27.20;59.60;;;;;;4954469;29;20410;-90
2022/09/04 12:05:15;;;;;;;7.15;4.88;;;27.20;59.60;;;;;;4953340;29;20189;-77
2022/09/04 12:08:07;;;;;;;8.15;4.53;;;27.50;60.10;;;;;;4931845;29;20155;-85
2022/09/04 12:11:08;;;;;;;7.50;4.90;;;27.80;58.80;;;;;;4919312;29;20031;-79
2022/09/04 12:14:10;;;;;;;5.30;4.28;;;27.70;58.50;;;;;;4926294;29;20494;-78
2022/09/04 12:17:01;;;;;;;6.40;4.82;;;28.00;58.40;;;;;;4936992;29;20034;-79
2022/09/04 12:19:59;;;;;;;6.55;5.13;;;27.80;58.30;;;;;;4931600;29;20040;-77
2022/09/04 12:22:50;;;;;;;5.82;4.80;;;27.50;58.00;;;;;;4969451;28;20049;-88
2022/09/04 12:25:37;;;;;;;5.63;4.80;;;27.40;58.40;;;;;;5005902;28;20040;-88
2022/09/04 12:28:14;;;;;;;8.68;5.72;;;27.60;58.50;;;;;;5053868;28;20109;-85
2022/09/04 12:30:52;;;;;;;6.82;5.20;;;27.80;58.40;;;;;;5054411;28;20025;-87
2022/09/04 12:33:48;;;;;;;6.45;5.50;;;28.30;57.90;;;;;;5034644;28;20025;-87
2022/09/04 12:36:52;;;;;;;7.47;5.25;;;28.00;56.90;;;;;;5054193;28;20032;-79
2022/09/04 12:39:38;;;;;;;6.13;4.88;;;27.70;57.50;;;;;;5025046;28;20119;-82
2022/09/04 12:42:17;;;;;;;7.20;5.10;;;27.90;57.60;;;;;;5019563;28;20047;-81
2022/09/04 12:44:59;;;;;;;7.57;5.13;;;28.00;57.90;;;;;;5030368;28;20025;-82
2022/09/04 12:47:59;;;;;;;6.75;5.40;;;28.20;57.70;;;;;;5049088;28;20031;-85
2022/09/04 12:50:36;;;;;;;7.07;5.70;;;28.50;56.90;;;;;;5045290;28;20072;-87
2022/09/04 12:53:29;;;;;;;6.07;5.00;;;28.70;56.70;;;;;;4351320;28;10000255;-89
2022/09/04 12:56:10;;;;;;;6.13;5.03;;;28.30;56.40;;;;;;5021042;28;20055;-89
2022/09/04 12:58:49;;;;;;;6.30;4.88;;;27.80;58.80;;;;;;5026206;28;20473;-83
2022/09/04 13:01:30;;;;;;;7.22;5.88;;;27.60;59.00;;;;;;5036078;28;20123;-81
2022/09/04 13:04:12;;;;;;;9.30;6.07;;;28.00;58.90;;;;;;5027878;28;20036;-79
2022/09/04 13:06:58;;;;;;;6.63;5.15;;;28.40;57.80;;;;;;4680812;28;9999732;-82
2022/09/04 13:09:48;;;;;;;6.80;5.85;;;28.70;57.20;;;;;;5043374;28;20063;-78
2022/09/04 13:12:41;;;;;;;6.93;5.72;;;29.10;57.10;;;;;;5039398;28;20072;-78
2022/09/04 13:15:10;;;;;;;7.68;5.38;;;29.20;57.00;;;;;;5061666;28;20071;-78
2022/09/04 13:17:57;;;;;;;7.13;5.40;;;29.00;57.50;;;;;;5022489;28;20499;-81
2022/09/04 13:20:37;;;;;;;6.72;5.32;;;29.10;57.50;;;;;;5026540;28;20040;-77
2022/09/04 13:23:46;;;;;;;6.93;6.22;;;29.00;56.70;;;;;;5029612;28;20044;-76
2022/09/04 13:26:28;;;;;;;8.15;6.50;;;29.00;57.20;;;;;;5064623;28;20510;-83
2022/09/04 13:29:49;;;;;;;7.88;5.60;;;29.20;57.60;;;;;;5030410;28;20021;-77
2022/09/04 13:32:35;;;;;;;6.85;4.90;;;29.50;56.40;;;;;;4985918;28;20041;-79
2022/09/04 13:35:05;;;;;;;10.07;5.50;;;29.20;56.70;;;;;;4955027;28;20043;-82
2022/09/04 13:38:14;;;;;;;11.20;6.40;;;28.80;57.20;;;;;;4964431;28;20034;-86
2022/09/04 13:41:04;;;;;;;11.70;5.70;;;29.00;57.60;;;;;;4933643;29;20035;-85
2022/09/04 13:43:39;;;;;;;8.15;5.80;;;29.10;57.30;;;;;;4934198;29;20406;-88
2022/09/04 13:46:20;;;;;;;6.97;5.88;;;29.30;57.30;;;;;;4925681;29;20032;-87
2022/09/04 13:48:54;;;;;;;;;;;29.60;56.10;;;;;;4899529;29;20432;-87
2022/09/04 13:51:29;;;;;;;6.25;5.30;;;29.80;55.30;;;;;;4898864;29;19929;-84
2022/09/04 13:54:08;;;;;;;7.03;6.03;;;29.80;55.40;;;;;;4898971;29;20397;-87
2022/09/04 13:56:41;;;;;;;5.90;5.07;;;29.60;55.40;;;;;;4898066;29;20392;-83
2022/09/04 13:59:13;;;;;;;6.32;4.97;;;29.60;56.00;;;;;;4897970;29;20043;-87
2022/09/04 14:01:46;;;;;;;8.10;5.05;;;29.20;55.20;;;;;;4898037;29;20044;-81
2022/09/04 14:04:47;;;;;;;6.60;4.90;;;28.80;55.80;;;;;;4912734;29;20048;-80
2022/09/04 14:07:28;;;;;;;7.63;5.05;;;28.50;55.80;;;;;;4950198;28;20070;-83
2022/09/04 14:09:59;;;;;;;6.95;5.35;;;28.60;56.10;;;;;;4932654;28;20071;-81
2022/09/04 14:12:33;;;;;;;10.85;6.10;;;28.80;55.60;;;;;;4952611;29;20035;-87
2022/09/04 14:15:31;;;;;;;7.97;6.50;;;28.90;55.60;;;;;;4941145;28;20518;-79
2022/09/04 14:18:47;;;;;;;13.25;8.45;;;29.00;56.40;;;;;;5035099;28;20096;-88
2022/09/04 14:21:37;;;;;;;13.75;10.80;;;29.30;55.80;;;;;;5033515;28;20022;-84
2022/09/04 14:24:31;;;;;;;8.68;7.13;;;29.60;55.90;;;;;;5015355;28;20045;-83
2022/09/04 14:27:22;;;;;;;6.82;5.80;;;29.60;56.00;;;;;;5015687;28;20037;-90
2022/09/04 14:30:21;;;;;;;;;;;29.40;55.60;;;;;;5016730;28;20500;-89
2022/09/04 14:33:11;;;;;;;7.97;5.35;;;29.20;55.70;;;;;;4952307;29;19917;-84